sensor_id;sensor_type;location;lat;lon;timestamp;P1;durP1;ratioP1;P2;durP2;ratioP2
19863;SDS011;10094;48.820;9.226;2023-06-14T00:05:34;8.45;;;6.65;;
19863;SDS011;10094;48.820;9.226;2023-06-14T00:12:20;8.55;;;5.63;;
19863;SDS011;10094;48.820;9.226;2023-06-14T00:19:03;7.88;;;4.40;;
19863;SDS011;10094;48.820;9.226;2023-06-14T00:25:46;9.43;;;8.00;;
19863;SDS011;10094;48.820;9.226;2023-06-14T00:32:28;8.55;;;5.95;;
19863;SDS011;10094;48.820;9.226;2023-06-14T00:39:11;9.27;;;6.70;;
19863;SDS011;10094;48.820;9.226;2023-06-14T00:45:54;13.10;;;9.27;;
19863;SDS011;10094;48.820;9.226;2023-06-14T00:52:36;7.40;;;5.80;;
19863;SDS011;10094;48.820;9.226;2023-06-14T00:59:19;7.97;;;5.35;;
19863;SDS011;10094;48.820;9.226;2023-06-14T01:20:14;5.35;;;4.15;;
19863;SDS011;10094;48.820;9.226;2023-06-14T01:26:59;5.45;;;4.65;;
19863;SDS011;10094;48.820;9.226;2023-06-14T01:33:42;6.43;;;4.60;;
19863;SDS011;10094;48.820;9.226;2023-06-14T01:40:25;5.78;;;4.63;;
19863;SDS011;10094;48.820;9.226;2023-06-14T01:47:09;6.00;;;4.90;;
19863;SDS011;10094;48.820;9.226;2023-06-14T01:53:52;6.90;;;4.72;;
19863;SDS011;10094;48.820;9.226;2023-06-14T02:00:35;6.10;;;4.47;;
19863;SDS011;10094;48.820;9.226;2023-06-14T02:07:17;8.43;;;5.43;;
19863;SDS011;10094;48.820;9.226;2023-06-14T02:14:00;8.13;;;5.07;;
19863;SDS011;10094;48.820;9.226;2023-06-14T02:20:43;6.22;;;4.63;;
19863;SDS011;10094;48.820;9.226;2023-06-14T02:27:26;7.18;;;5.28;;
19863;SDS011;10094;48.820;9.226;2023-06-14T02:34:08;7.03;;;6.07;;
19863;SDS011;10094;48.820;9.226;2023-06-14T02:40:51;8.27;;;6.57;;
19863;SDS011;10094;48.820;9.226;2023-06-14T02:47:34;6.22;;;5.43;;
19863;SDS011;10094;48.820;9.226;2023-06-14T02:54:17;6.65;;;5.50;;
19863;SDS011;10094;48.820;9.226;2023-06-14T03:00:59;9.52;;;6.00;;
19863;SDS011;10094;48.820;9.226;2023-06-14T03:07:46;8.57;;;5.82;;
19863;SDS011;10094;48.820;9.226;2023-06-14T03:14:30;8.02;;;6.07;;
19863;SDS011;10094;48.820;9.226;2023-06-14T03:21:13;8.60;;;6.28;;
19863;SDS011;10094;48.820;9.226;2023-06-14T03:27:59;9.25;;;6.25;;
19863;SDS011;10094;48.820;9.226;2023-06-14T03:34:42;7.25;;;6.00;;
19863;SDS011;10094;48.820;9.226;2023-06-14T03:41:30;9.52;;;6.28;;
19863;SDS011;10094;48.820;9.226;2023-06-14T03:48:12;10.13;;;6.68;;
19863;SDS011;10094;48.820;9.226;2023-06-14T03:54:55;6.47;;;5.78;;
19863;SDS011;10094;48.820;9.226;2023-06-14T04:01:59;9.00;;;6.07;;
19863;SDS011;10094;48.820;9.226;2023-06-14T04:08:41;5.97;;;5.15;;
19863;SDS011;10094;48.820;9.226;2023-06-14T04:15:24;7.05;;;5.90;;
19863;SDS011;10094;48.820;9.226;2023-06-14T04:22:09;10.27;;;6.47;;
19863;SDS011;10094;48.820;9.226;2023-06-14T04:28:54;9.95;;;6.50;;
19863;SDS011;10094;48.820;9.226;2023-06-14T04:35:38;12.65;;;6.78;;
19863;SDS011;10094;48.820;9.226;2023-06-14T04:42:23;8.88;;;6.50;;
19863;SDS011;10094;48.820;9.226;2023-06-14T04:49:17;8.15;;;6.00;;
19863;SDS011;10094;48.820;9.226;2023-06-14T04:56:00;9.57;;;5.93;;
19863;SDS011;10094;48.820;9.226;2023-06-14T05:02:43;9.00;;;7.30;;
19863;SDS011;10094;48.820;9.226;2023-06-14T05:09:26;8.05;;;6.93;;
19863;SDS011;10094;48.820;9.226;2023-06-14T05:16:08;9.15;;;5.90;;
19863;SDS011;10094;48.820;9.226;2023-06-14T05:22:52;9.40;;;6.15;;
19863;SDS011;10094;48.820;9.226;2023-06-14T05:29:35;7.72;;;5.82;;
19863;SDS011;10094;48.820;9.226;2023-06-14T05:36:18;10.18;;;6.47;;
19863;SDS011;10094;48.820;9.226;2023-06-14T05:43:01;7.18;;;6.25;;
19863;SDS011;10094;48.820;9.226;2023-06-14T05:49:43;8.45;;;5.82;;
19863;SDS011;10094;48.820;9.226;2023-06-14T05:56:26;6.75;;;5.88;;
19863;SDS011;10094;48.820;9.226;2023-06-14T06:03:08;8.35;;;6.63;;
19863;SDS011;10094;48.820;9.226;2023-06-14T06:09:51;7.95;;;5.05;;
19863;SDS011;10094;48.820;9.226;2023-06-14T06:16:33;10.18;;;5.78;;
19863;SDS011;10094;48.820;9.226;2023-06-14T06:23:15;6.60;;;5.50;;
19863;SDS011;10094;48.820;9.226;2023-06-14T06:29:58;5.90;;;5.18;;
19863;SDS011;10094;48.820;9.226;2023-06-14T06:36:41;7.35;;;5.30;;
19863;SDS011;10094;48.820;9.226;2023-06-14T06:43:24;7.22;;;5.43;;
19863;SDS011;10094;48.820;9.226;2023-06-14T06:50:07;7.82;;;4.60;;
19863;SDS011;10094;48.820;9.226;2023-06-14T06:56:49;6.65;;;4.88;;
19863;SDS011;10094;48.820;9.226;2023-06-14T07:03:32;8.07;;;5.10;;
19863;SDS011;10094;48.820;9.226;2023-06-14T07:10:14;7.05;;;4.68;;
19863;SDS011;10094;48.820;9.226;2023-06-14T07:16:57;7.95;;;4.80;;
19863;SDS011;10094;48.820;9.226;2023-06-14T07:23:39;5.18;;;4.68;;
19863;SDS011;10094;48.820;9.226;2023-06-14T07:30:21;5.57;;;4.25;;
19863;SDS011;10094;48.820;9.226;2023-06-14T07:37:07;7.25;;;5.00;;
19863;SDS011;10094;48.820;9.226;2023-06-14T07:51:53;6.25;;;4.70;;
19863;SDS011;10094;48.820;9.226;2023-06-14T07:58:36;5.55;;;4.95;;
19863;SDS011;10094;48.820;9.226;2023-06-14T08:05:18;6.68;;;5.15;;
19863;SDS011;10094;48.820;9.226;2023-06-14T08:12:00;6.43;;;4.75;;
19863;SDS011;10094;48.820;9.226;2023-06-14T08:18:43;4.85;;;4.18;;
19863;SDS011;10094;48.820;9.226;2023-06-14T08:25:26;6.05;;;4.63;;
19863;SDS011;10094;48.820;9.226;2023-06-14T08:32:08;10.15;;;4.78;;
19863;SDS011;10094;48.820;9.226;2023-06-14T08:56:30;8.38;;;4.35;;
19863;SDS011;10094;48.820;9.226;2023-06-14T09:03:13;10.57;;;4.25;;
19863;SDS011;10094;48.820;9.226;2023-06-14T09:10:06;7.93;;;4.20;;
19863;SDS011;10094;48.820;9.226;2023-06-14T09:16:57;6.80;;;4.28;;
19863;SDS011;10094;48.820;9.226;2023-06-14T09:23:40;11.73;;;5.32;;
19863;SDS011;10094;48.820;9.226;2023-06-14T09:30:23;6.30;;;4.32;;
19863;SDS011;10094;48.820;9.226;2023-06-14T09:37:05;6.65;;;4.63;;
19863;SDS011;10094;48.820;9.226;2023-06-14T09:43:48;6.60;;;4.10;;
19863;SDS011;10094;48.820;9.226;2023-06-14T09:50:31;6.22;;;4.38;;
19863;SDS011;10094;48.820;9.226;2023-06-14T09:57:15;7.72;;;3.70;;
19863;SDS011;10094;48.820;9.226;2023-06-14T10:04:02;6.47;;;4.18;;
19863;SDS011;10094;48.820;9.226;2023-06-14T10:10:52;6.63;;;4.40;;
19863;SDS011;10094;48.820;9.226;2023-06-14T10:17:42;4.47;;;4.07;;
19863;SDS011;10094;48.820;9.226;2023-06-14T10:24:30;5.25;;;4.20;;
19863;SDS011;10094;48.820;9.226;2023-06-14T10:31:20;6.78;;;4.82;;
19863;SDS011;10094;48.820;9.226;2023-06-14T10:38:10;5.45;;;4.05;;
19863;SDS011;10094;48.820;9.226;2023-06-14T10:44:55;6.20;;;4.13;;
19863;SDS011;10094;48.820;9.226;2023-06-14T10:51:42;8.88;;;4.28;;
19863;SDS011;10094;48.820;9.226;2023-06-14T10:58:30;6.38;;;4.05;;
19863;SDS011;10094;48.820;9.226;2023-06-14T11:05:15;9.55;;;4.20;;
19863;SDS011;10094;48.820;9.226;2023-06-14T11:12:09;4.38;;;3.90;;
19863;SDS011;10094;48.820;9.226;2023-06-14T11:18:53;4.47;;;3.88;;
19863;SDS011;10094;48.820;9.226;2023-06-14T11:25:36;5.97;;;3.85;;
19863;SDS011;10094;48.820;9.226;2023-06-14T11:32:18;4.95;;;3.88;;
19863;SDS011;10094;48.820;9.226;2023-06-14T11:39:01;5.50;;;3.67;;
19863;SDS011;10094;48.820;9.226;2023-06-14T11:45:47;5.20;;;3.78;;
19863;SDS011;10094;48.820;9.226;2023-06-14T11:52:54;4.03;;;3.60;;
19863;SDS011;10094;48.820;9.226;2023-06-14T11:59:38;7.18;;;3.80;;
19863;SDS011;10094;48.820;9.226;2023-06-14T12:06:28;7.75;;;3.95;;
19863;SDS011;10094;48.820;9.226;2023-06-14T12:13:16;5.75;;;3.58;;
19863;SDS011;10094;48.820;9.226;2023-06-14T12:20:04;9.20;;;4.28;;
19863;SDS011;10094;48.820;9.226;2023-06-14T12:26:53;5.03;;;3.60;;
19863;SDS011;10094;48.820;9.226;2023-06-14T12:33:35;4.30;;;3.90;;
19863;SDS011;10094;48.820;9.226;2023-06-14T12:40:18;7.35;;;3.58;;
19863;SDS011;10094;48.820;9.226;2023-06-14T12:47:01;6.22;;;3.70;;
19863;SDS011;10094;48.820;9.226;2023-06-14T12:53:43;6.88;;;3.78;;
19863;SDS011;10094;48.820;9.226;2023-06-14T13:00:25;3.97;;;3.63;;
19863;SDS011;10094;48.820;9.226;2023-06-14T13:07:08;3.72;;;3.38;;
19863;SDS011;10094;48.820;9.226;2023-06-14T13:13:52;4.70;;;3.75;;
19863;SDS011;10094;48.820;9.226;2023-06-14T13:20:34;10.18;;;3.90;;
19863;SDS011;10094;48.820;9.226;2023-06-14T13:27:17;7.10;;;3.85;;
19863;SDS011;10094;48.820;9.226;2023-06-14T13:33:59;5.93;;;3.63;;
19863;SDS011;10094;48.820;9.226;2023-06-14T13:40:42;5.65;;;3.67;;
19863;SDS011;10094;48.820;9.226;2023-06-14T13:47:24;9.00;;;3.58;;
19863;SDS011;10094;48.820;9.226;2023-06-14T13:54:07;4.40;;;3.70;;
19863;SDS011;10094;48.820;9.226;2023-06-14T14:00:49;5.82;;;3.80;;
19863;SDS011;10094;48.820;9.226;2023-06-14T14:07:32;3.80;;;3.30;;
19863;SDS011;10094;48.820;9.226;2023-06-14T14:14:15;3.78;;;3.45;;
19863;SDS011;10094;48.820;9.226;2023-06-14T14:20:58;5.50;;;3.78;;
19863;SDS011;10094;48.820;9.226;2023-06-14T14:27:42;3.67;;;3.28;;
19863;SDS011;10094;48.820;9.226;2023-06-14T14:34:25;4.50;;;3.65;;
19863;SDS011;10094;48.820;9.226;2023-06-14T14:41:07;7.20;;;3.97;;
19863;SDS011;10094;48.820;9.226;2023-06-14T14:47:49;4.40;;;4.00;;
19863;SDS011;10094;48.820;9.226;2023-06-14T14:54:34;7.60;;;3.92;;
19863;SDS011;10094;48.820;9.226;2023-06-14T15:01:18;4.13;;;3.63;;
19863;SDS011;10094;48.820;9.226;2023-06-14T15:08:00;6.97;;;3.85;;
19863;SDS011;10094;48.820;9.226;2023-06-14T15:14:43;4.53;;;3.95;;
19863;SDS011;10094;48.820;9.226;2023-06-14T15:21:25;4.85;;;3.72;;
19863;SDS011;10094;48.820;9.226;2023-06-14T15:28:08;5.57;;;3.50;;
19863;SDS011;10094;48.820;9.226;2023-06-14T15:34:51;4.05;;;3.40;;
19863;SDS011;10094;48.820;9.226;2023-06-14T15:41:34;4.60;;;3.60;;
19863;SDS011;10094;48.820;9.226;2023-06-14T15:48:16;4.25;;;3.50;;
19863;SDS011;10094;48.820;9.226;2023-06-14T15:54:59;3.47;;;3.17;;
19863;SDS011;10094;48.820;9.226;2023-06-14T16:01:41;5.15;;;3.95;;
19863;SDS011;10094;48.820;9.226;2023-06-14T16:08:24;7.03;;;3.50;;
19863;SDS011;10094;48.820;9.226;2023-06-14T16:15:22;4.25;;;3.85;;
19863;SDS011;10094;48.820;9.226;2023-06-14T16:22:05;6.65;;;4.15;;
19863;SDS011;10094;48.820;9.226;2023-06-14T16:28:49;7.00;;;3.75;;
19863;SDS011;10094;48.820;9.226;2023-06-14T16:35:31;5.72;;;3.72;;
19863;SDS011;10094;48.820;9.226;2023-06-14T16:42:14;5.45;;;3.78;;
19863;SDS011;10094;48.820;9.226;2023-06-14T16:48:59;5.28;;;3.72;;
19863;SDS011;10094;48.820;9.226;2023-06-14T16:55:42;7.03;;;3.42;;
19863;SDS011;10094;48.820;9.226;2023-06-14T17:02:25;5.43;;;4.07;;
19863;SDS011;10094;48.820;9.226;2023-06-14T17:09:08;4.10;;;3.70;;
19863;SDS011;10094;48.820;9.226;2023-06-14T17:15:50;7.15;;;3.63;;
19863;SDS011;10094;48.820;9.226;2023-06-14T17:22:33;4.25;;;3.50;;
19863;SDS011;10094;48.820;9.226;2023-06-14T17:29:16;7.32;;;3.90;;
19863;SDS011;10094;48.820;9.226;2023-06-14T17:35:59;5.30;;;3.40;;
19863;SDS011;10094;48.820;9.226;2023-06-14T17:42:41;8.70;;;3.55;;
19863;SDS011;10094;48.820;9.226;2023-06-14T17:49:24;5.00;;;3.72;;
19863;SDS011;10094;48.820;9.226;2023-06-14T17:56:08;5.30;;;3.47;;
19863;SDS011;10094;48.820;9.226;2023-06-14T18:02:50;5.63;;;3.92;;
19863;SDS011;10094;48.820;9.226;2023-06-14T18:09:33;7.50;;;4.30;;
19863;SDS011;10094;48.820;9.226;2023-06-14T18:16:16;5.65;;;3.70;;
19863;SDS011;10094;48.820;9.226;2023-06-14T18:23:01;4.18;;;3.78;;
19863;SDS011;10094;48.820;9.226;2023-06-14T18:29:43;6.72;;;4.55;;
19863;SDS011;10094;48.820;9.226;2023-06-14T18:36:28;6.20;;;3.92;;
19863;SDS011;10094;48.820;9.226;2023-06-14T18:43:10;6.55;;;4.38;;
19863;SDS011;10094;48.820;9.226;2023-06-14T18:49:53;5.10;;;4.00;;
19863;SDS011;10094;48.820;9.226;2023-06-14T18:56:36;4.95;;;3.63;;
19863;SDS011;10094;48.820;9.226;2023-06-14T19:03:19;6.32;;;4.18;;
19863;SDS011;10094;48.820;9.226;2023-06-14T19:10:02;5.18;;;4.10;;
19863;SDS011;10094;48.820;9.226;2023-06-14T19:16:45;4.40;;;3.85;;
19863;SDS011;10094;48.820;9.226;2023-06-14T19:23:27;6.90;;;4.13;;
19863;SDS011;10094;48.820;9.226;2023-06-14T19:30:10;4.97;;;3.70;;
19863;SDS011;10094;48.820;9.226;2023-06-14T19:36:53;6.47;;;4.13;;
19863;SDS011;10094;48.820;9.226;2023-06-14T19:43:36;7.72;;;4.18;;
19863;SDS011;10094;48.820;9.226;2023-06-14T19:50:18;6.97;;;3.97;;
19863;SDS011;10094;48.820;9.226;2023-06-14T19:57:01;9.60;;;4.30;;
19863;SDS011;10094;48.820;9.226;2023-06-14T20:03:44;7.68;;;4.18;;
19863;SDS011;10094;48.820;9.226;2023-06-14T20:10:28;5.25;;;4.68;;
19863;SDS011;10094;48.820;9.226;2023-06-14T20:17:11;5.45;;;4.20;;
19863;SDS011;10094;48.820;9.226;2023-06-14T20:23:53;4.28;;;3.88;;
19863;SDS011;10094;48.820;9.226;2023-06-14T20:30:36;6.20;;;4.88;;
19863;SDS011;10094;48.820;9.226;2023-06-14T20:37:18;6.13;;;3.97;;
19863;SDS011;10094;48.820;9.226;2023-06-14T20:44:00;6.38;;;3.72;;
19863;SDS011;10094;48.820;9.226;2023-06-14T20:50:43;8.15;;;5.93;;
19863;SDS011;10094;48.820;9.226;2023-06-14T20:57:25;8.52;;;6.95;;
19863;SDS011;10094;48.820;9.226;2023-06-14T21:04:08;9.00;;;3.95;;
19863;SDS011;10094;48.820;9.226;2023-06-14T21:10:51;6.20;;;4.55;;
19863;SDS011;10094;48.820;9.226;2023-06-14T21:17:33;5.72;;;4.75;;
19863;SDS011;10094;48.820;9.226;2023-06-14T21:24:16;5.35;;;4.30;;
19863;SDS011;10094;48.820;9.226;2023-06-14T21:30:59;6.20;;;4.63;;
19863;SDS011;10094;48.820;9.226;2023-06-14T21:37:41;8.73;;;5.13;;
19863;SDS011;10094;48.820;9.226;2023-06-14T21:44:23;6.53;;;4.60;;
19863;SDS011;10094;48.820;9.226;2023-06-14T21:51:06;6.50;;;5.05;;
19863;SDS011;10094;48.820;9.226;2023-06-14T21:57:49;7.82;;;4.50;;
19863;SDS011;10094;48.820;9.226;2023-06-14T22:04:31;6.30;;;4.57;;
19863;SDS011;10094;48.820;9.226;2023-06-14T22:11:14;12.88;;;8.30;;
19863;SDS011;10094;48.820;9.226;2023-06-14T22:17:56;9.60;;;6.55;;
19863;SDS011;10094;48.820;9.226;2023-06-14T22:24:39;10.43;;;6.43;;
19863;SDS011;10094;48.820;9.226;2023-06-14T22:31:22;8.05;;;6.05;;
19863;SDS011;10094;48.820;9.226;2023-06-14T22:38:05;10.82;;;5.68;;
19863;SDS011;10094;48.820;9.226;2023-06-14T22:44:49;11.85;;;9.52;;
19863;SDS011;10094;48.820;9.226;2023-06-14T22:51:32;10.75;;;8.73;;
19863;SDS011;10094;48.820;9.226;2023-06-14T22:58:14;9.85;;;8.30;;
19863;SDS011;10094;48.820;9.226;2023-06-14T23:04:57;8.05;;;7.25;;
19863;SDS011;10094;48.820;9.226;2023-06-14T23:11:40;8.98;;;6.30;;
19863;SDS011;10094;48.820;9.226;2023-06-14T23:18:24;5.30;;;4.80;;
19863;SDS011;10094;48.820;9.226;2023-06-14T23:25:06;6.68;;;5.00;;
19863;SDS011;10094;48.820;9.226;2023-06-14T23:31:49;6.63;;;4.60;;
19863;SDS011;10094;48.820;9.226;2023-06-14T23:38:32;7.05;;;4.60;;
19863;SDS011;10094;48.820;9.226;2023-06-14T23:45:15;7.47;;;4.80;;
19863;SDS011;10094;48.820;9.226;2023-06-14T23:51:58;7.22;;;5.32;;
19863;SDS011;10094;48.820;9.226;2023-06-14T23:58:43;8.05;;;4.85;;
